sensor_id;sensor_type;location;lat;lon;timestamp;P1;durP1;ratioP1;P2;durP2;ratioP2
10473;SDS011;5284;50.446;7.904;2023-04-15T00:02:02;16.05;;;6.63;;
10473;SDS011;5284;50.446;7.904;2023-04-15T00:07:16;24.90;;;8.38;;
10473;SDS011;5284;50.446;7.904;2023-04-15T00:12:19;19.23;;;6.13;;
10473;SDS011;5284;50.446;7.904;2023-04-15T00:17:22;10.88;;;6.05;;
10473;SDS011;5284;50.446;7.904;2023-04-15T00:22:28;14.90;;;7.93;;
10473;SDS011;5284;50.446;7.904;2023-04-15T00:27:31;13.80;;;5.57;;
10473;SDS011;5284;50.446;7.904;2023-04-15T00:32:34;17.85;;;5.63;;
10473;SDS011;5284;50.446;7.904;2023-04-15T00:37:38;15.02;;;4.90;;
10473;SDS011;5284;50.446;7.904;2023-04-15T00:42:42;11.10;;;4.93;;
10473;SDS011;5284;50.446;7.904;2023-04-15T00:47:45;13.68;;;5.35;;
10473;SDS011;5284;50.446;7.904;2023-04-15T00:52:49;20.73;;;5.25;;
10473;SDS011;5284;50.446;7.904;2023-04-15T00:57:52;12.32;;;4.18;;
10473;SDS011;5284;50.446;7.904;2023-04-15T01:02:56;10.50;;;4.45;;
10473;SDS011;5284;50.446;7.904;2023-04-15T01:08:01;10.93;;;4.63;;
10473;SDS011;5284;50.446;7.904;2023-04-15T01:13:04;17.73;;;5.80;;
10473;SDS011;5284;50.446;7.904;2023-04-15T01:18:07;11.98;;;4.93;;
10473;SDS011;5284;50.446;7.904;2023-04-15T01:23:12;14.73;;;5.00;;
10473;SDS011;5284;50.446;7.904;2023-04-15T01:28:18;21.52;;;6.40;;
10473;SDS011;5284;50.446;7.904;2023-04-15T01:33:21;21.88;;;7.53;;
10473;SDS011;5284;50.446;7.904;2023-04-15T01:38:25;22.65;;;8.38;;
10473;SDS011;5284;50.446;7.904;2023-04-15T01:43:30;20.80;;;7.32;;
10473;SDS011;5284;50.446;7.904;2023-04-15T01:48:33;29.23;;;8.63;;
10473;SDS011;5284;50.446;7.904;2023-04-15T01:53:37;32.00;;;9.48;;
10473;SDS011;5284;50.446;7.904;2023-04-15T01:58:41;33.92;;;9.68;;
10473;SDS011;5284;50.446;7.904;2023-04-15T02:03:44;21.27;;;7.50;;
10473;SDS011;5284;50.446;7.904;2023-04-15T02:08:49;23.92;;;8.77;;
10473;SDS011;5284;50.446;7.904;2023-04-15T02:13:53;20.63;;;8.63;;
10473;SDS011;5284;50.446;7.904;2023-04-15T02:18:56;22.98;;;7.97;;
10473;SDS011;5284;50.446;7.904;2023-04-15T02:23:59;25.35;;;9.20;;
10473;SDS011;5284;50.446;7.904;2023-04-15T02:29:03;21.23;;;7.00;;
10473;SDS011;5284;50.446;7.904;2023-04-15T02:34:06;30.20;;;8.65;;
10473;SDS011;5284;50.446;7.904;2023-04-15T02:39:09;26.02;;;7.65;;
10473;SDS011;5284;50.446;7.904;2023-04-15T02:44:16;19.70;;;8.48;;
10473;SDS011;5284;50.446;7.904;2023-04-15T02:49:22;19.55;;;7.32;;
10473;SDS011;5284;50.446;7.904;2023-04-15T02:54:25;19.15;;;7.13;;
10473;SDS011;5284;50.446;7.904;2023-04-15T02:59:31;18.00;;;7.57;;
10473;SDS011;5284;50.446;7.904;2023-04-15T03:04:34;16.13;;;6.55;;
10473;SDS011;5284;50.446;7.904;2023-04-15T03:09:37;16.42;;;5.13;;
10473;SDS011;5284;50.446;7.904;2023-04-15T03:14:43;16.75;;;5.82;;
10473;SDS011;5284;50.446;7.904;2023-04-15T03:19:45;15.88;;;5.90;;
10473;SDS011;5284;50.446;7.904;2023-04-15T03:24:49;20.05;;;6.05;;
10473;SDS011;5284;50.446;7.904;2023-04-15T03:29:53;19.30;;;6.80;;
10473;SDS011;5284;50.446;7.904;2023-04-15T03:34:58;15.95;;;6.43;;
10473;SDS011;5284;50.446;7.904;2023-04-15T03:40:01;15.95;;;5.10;;
10473;SDS011;5284;50.446;7.904;2023-04-15T03:45:06;21.27;;;5.53;;
10473;SDS011;5284;50.446;7.904;2023-04-15T03:50:10;18.27;;;6.03;;
10473;SDS011;5284;50.446;7.904;2023-04-15T03:55:13;17.85;;;6.20;;
10473;SDS011;5284;50.446;7.904;2023-04-15T04:00:18;14.70;;;6.18;;
10473;SDS011;5284;50.446;7.904;2023-04-15T04:05:21;15.02;;;5.80;;
10473;SDS011;5284;50.446;7.904;2023-04-15T04:10:24;16.55;;;5.90;;
10473;SDS011;5284;50.446;7.904;2023-04-15T04:15:28;14.35;;;6.00;;
10473;SDS011;5284;50.446;7.904;2023-04-15T04:20:31;14.90;;;5.60;;
10473;SDS011;5284;50.446;7.904;2023-04-15T04:25:34;13.18;;;5.15;;
10473;SDS011;5284;50.446;7.904;2023-04-15T04:30:39;15.95;;;5.63;;
10473;SDS011;5284;50.446;7.904;2023-04-15T04:35:42;11.80;;;6.13;;
10473;SDS011;5284;50.446;7.904;2023-04-15T04:40:45;19.35;;;6.22;;
10473;SDS011;5284;50.446;7.904;2023-04-15T04:45:49;13.93;;;5.78;;
10473;SDS011;5284;50.446;7.904;2023-04-15T04:50:52;14.48;;;5.80;;
10473;SDS011;5284;50.446;7.904;2023-04-15T04:55:55;17.45;;;5.28;;
10473;SDS011;5284;50.446;7.904;2023-04-15T05:00:59;22.42;;;6.00;;
10473;SDS011;5284;50.446;7.904;2023-04-15T05:06:03;13.25;;;5.50;;
10473;SDS011;5284;50.446;7.904;2023-04-15T05:11:08;12.68;;;4.78;;
10473;SDS011;5284;50.446;7.904;2023-04-15T05:16:13;10.25;;;4.53;;
10473;SDS011;5284;50.446;7.904;2023-04-15T05:21:17;10.70;;;5.43;;
10473;SDS011;5284;50.446;7.904;2023-04-15T05:26:20;11.98;;;5.03;;
10473;SDS011;5284;50.446;7.904;2023-04-15T05:31:25;10.57;;;4.97;;
10473;SDS011;5284;50.446;7.904;2023-04-15T05:36:28;17.65;;;5.20;;
10473;SDS011;5284;50.446;7.904;2023-04-15T05:41:31;11.82;;;4.63;;
10473;SDS011;5284;50.446;7.904;2023-04-15T05:46:36;20.02;;;6.68;;
10473;SDS011;5284;50.446;7.904;2023-04-15T05:51:39;16.15;;;8.05;;
10473;SDS011;5284;50.446;7.904;2023-04-15T05:56:42;16.73;;;8.10;;
10473;SDS011;5284;50.446;7.904;2023-04-15T06:01:46;18.48;;;7.07;;
10473;SDS011;5284;50.446;7.904;2023-04-15T06:06:49;21.35;;;10.15;;
10473;SDS011;5284;50.446;7.904;2023-04-15T06:11:51;19.23;;;7.30;;
10473;SDS011;5284;50.446;7.904;2023-04-15T06:16:56;15.85;;;6.63;;
10473;SDS011;5284;50.446;7.904;2023-04-15T06:21:59;28.27;;;10.50;;
10473;SDS011;5284;50.446;7.904;2023-04-15T06:27:02;20.67;;;7.75;;
10473;SDS011;5284;50.446;7.904;2023-04-15T06:32:07;19.17;;;8.95;;
10473;SDS011;5284;50.446;7.904;2023-04-15T06:37:10;13.95;;;7.25;;
10473;SDS011;5284;50.446;7.904;2023-04-15T06:42:16;31.23;;;10.32;;
10473;SDS011;5284;50.446;7.904;2023-04-15T06:47:20;20.67;;;8.70;;
10473;SDS011;5284;50.446;7.904;2023-04-15T06:52:23;23.27;;;8.50;;
10473;SDS011;5284;50.446;7.904;2023-04-15T06:57:26;13.38;;;6.78;;
10473;SDS011;5284;50.446;7.904;2023-04-15T07:02:31;17.83;;;7.47;;
10473;SDS011;5284;50.446;7.904;2023-04-15T07:07:36;15.67;;;7.23;;
10473;SDS011;5284;50.446;7.904;2023-04-15T07:12:39;28.05;;;8.10;;
10473;SDS011;5284;50.446;7.904;2023-04-15T07:17:44;15.52;;;7.53;;
10473;SDS011;5284;50.446;7.904;2023-04-15T07:22:47;15.38;;;7.18;;
10473;SDS011;5284;50.446;7.904;2023-04-15T07:27:51;17.35;;;6.68;;
10473;SDS011;5284;50.446;7.904;2023-04-15T07:32:56;16.50;;;5.78;;
10473;SDS011;5284;50.446;7.904;2023-04-15T07:38:00;20.92;;;5.97;;
10473;SDS011;5284;50.446;7.904;2023-04-15T07:43:03;16.52;;;5.80;;
10473;SDS011;5284;50.446;7.904;2023-04-15T07:48:07;15.32;;;5.20;;
10473;SDS011;5284;50.446;7.904;2023-04-15T07:53:09;16.23;;;5.70;;
10473;SDS011;5284;50.446;7.904;2023-04-15T07:58:12;11.27;;;4.97;;
10473;SDS011;5284;50.446;7.904;2023-04-15T08:03:17;14.90;;;4.38;;
10473;SDS011;5284;50.446;7.904;2023-04-15T08:08:20;14.93;;;4.18;;
10473;SDS011;5284;50.446;7.904;2023-04-15T08:13:22;11.75;;;5.15;;
10473;SDS011;5284;50.446;7.904;2023-04-15T08:18:29;5.38;;;2.40;;
10473;SDS011;5284;50.446;7.904;2023-04-15T08:23:31;6.00;;;2.28;;
10473;SDS011;5284;50.446;7.904;2023-04-15T08:28:35;3.25;;;2.20;;
10473;SDS011;5284;50.446;7.904;2023-04-15T08:33:41;15.38;;;2.30;;
10473;SDS011;5284;50.446;7.904;2023-04-15T08:38:44;8.18;;;2.55;;
10473;SDS011;5284;50.446;7.904;2023-04-15T08:43:50;8.80;;;2.25;;
10473;SDS011;5284;50.446;7.904;2023-04-15T08:54:00;8.20;;;2.30;;
10473;SDS011;5284;50.446;7.904;2023-04-15T08:59:03;5.80;;;2.30;;
10473;SDS011;5284;50.446;7.904;2023-04-15T09:04:08;4.50;;;2.25;;
10473;SDS011;5284;50.446;7.904;2023-04-15T09:09:13;13.20;;;2.20;;
10473;SDS011;5284;50.446;7.904;2023-04-15T09:14:17;6.93;;;2.08;;
10473;SDS011;5284;50.446;7.904;2023-04-15T09:19:21;3.17;;;1.45;;
10473;SDS011;5284;50.446;7.904;2023-04-15T09:24:25;4.65;;;1.80;;
10473;SDS011;5284;50.446;7.904;2023-04-15T09:29:38;6.15;;;1.80;;
10473;SDS011;5284;50.446;7.904;2023-04-15T09:34:44;20.17;;;6.25;;
10473;SDS011;5284;50.446;7.904;2023-04-15T09:39:47;4.68;;;1.67;;
10473;SDS011;5284;50.446;7.904;2023-04-15T09:44:52;10.25;;;5.05;;
10473;SDS011;5284;50.446;7.904;2023-04-15T09:49:57;6.07;;;2.25;;
10473;SDS011;5284;50.446;7.904;2023-04-15T09:55:01;4.88;;;2.20;;
10473;SDS011;5284;50.446;7.904;2023-04-15T10:00:05;7.20;;;1.80;;
10473;SDS011;5284;50.446;7.904;2023-04-15T10:05:15;6.75;;;2.03;;
10473;SDS011;5284;50.446;7.904;2023-04-15T10:10:18;2.40;;;1.40;;
10473;SDS011;5284;50.446;7.904;2023-04-15T10:15:22;2.17;;;1.27;;
10473;SDS011;5284;50.446;7.904;2023-04-15T10:20:27;2.75;;;0.98;;
10473;SDS011;5284;50.446;7.904;2023-04-15T10:25:30;2.55;;;1.50;;
10473;SDS011;5284;50.446;7.904;2023-04-15T10:30:35;1.58;;;1.10;;
10473;SDS011;5284;50.446;7.904;2023-04-15T10:35:39;3.40;;;1.30;;
10473;SDS011;5284;50.446;7.904;2023-04-15T10:40:43;2.38;;;1.20;;
10473;SDS011;5284;50.446;7.904;2023-04-15T10:45:48;4.13;;;1.30;;
10473;SDS011;5284;50.446;7.904;2023-04-15T10:50:56;3.92;;;1.48;;
10473;SDS011;5284;50.446;7.904;2023-04-15T10:55:59;2.28;;;1.00;;
10473;SDS011;5284;50.446;7.904;2023-04-15T11:01:02;3.08;;;1.30;;
10473;SDS011;5284;50.446;7.904;2023-04-15T11:06:06;3.40;;;1.65;;
10473;SDS011;5284;50.446;7.904;2023-04-15T11:11:10;2.85;;;1.33;;
10473;SDS011;5284;50.446;7.904;2023-04-15T11:16:12;3.15;;;1.92;;
10473;SDS011;5284;50.446;7.904;2023-04-15T11:21:17;2.33;;;1.42;;
10473;SDS011;5284;50.446;7.904;2023-04-15T11:26:24;1.83;;;1.17;;
10473;SDS011;5284;50.446;7.904;2023-04-15T11:31:28;2.67;;;1.30;;
10473;SDS011;5284;50.446;7.904;2023-04-15T11:36:32;7.18;;;1.75;;
10473;SDS011;5284;50.446;7.904;2023-04-15T11:41:35;2.35;;;1.55;;
10473;SDS011;5284;50.446;7.904;2023-04-15T11:46:38;2.72;;;1.85;;
10473;SDS011;5284;50.446;7.904;2023-04-15T11:51:43;3.00;;;2.15;;
10473;SDS011;5284;50.446;7.904;2023-04-15T11:56:48;2.05;;;1.48;;
10473;SDS011;5284;50.446;7.904;2023-04-15T12:01:52;3.20;;;1.75;;
10473;SDS011;5284;50.446;7.904;2023-04-15T12:06:57;2.30;;;1.80;;
10473;SDS011;5284;50.446;7.904;2023-04-15T12:12:06;2.92;;;1.50;;
10473;SDS011;5284;50.446;7.904;2023-04-15T12:17:13;3.67;;;1.83;;
10473;SDS011;5284;50.446;7.904;2023-04-15T12:22:17;2.70;;;1.83;;
10473;SDS011;5284;50.446;7.904;2023-04-15T12:27:24;2.22;;;1.65;;
10473;SDS011;5284;50.446;7.904;2023-04-15T12:32:33;2.63;;;1.42;;
10473;SDS011;5284;50.446;7.904;2023-04-15T12:37:39;3.28;;;1.88;;
10473;SDS011;5284;50.446;7.904;2023-04-15T12:42:42;2.30;;;1.65;;
10473;SDS011;5284;50.446;7.904;2023-04-15T12:47:46;2.60;;;1.70;;
10473;SDS011;5284;50.446;7.904;2023-04-15T12:52:50;2.65;;;1.70;;
10473;SDS011;5284;50.446;7.904;2023-04-15T12:57:53;4.00;;;2.05;;
10473;SDS011;5284;50.446;7.904;2023-04-15T13:02:56;3.95;;;2.38;;
10473;SDS011;5284;50.446;7.904;2023-04-15T13:08:00;3.45;;;2.17;;
10473;SDS011;5284;50.446;7.904;2023-04-15T13:13:03;7.85;;;3.80;;
10473;SDS011;5284;50.446;7.904;2023-04-15T13:18:08;6.65;;;4.40;;
10473;SDS011;5284;50.446;7.904;2023-04-15T13:23:13;8.52;;;4.97;;
10473;SDS011;5284;50.446;7.904;2023-04-15T13:28:17;10.02;;;5.28;;
10473;SDS011;5284;50.446;7.904;2023-04-15T13:33:20;8.23;;;5.50;;
10473;SDS011;5284;50.446;7.904;2023-04-15T13:38:25;13.65;;;5.65;;
10473;SDS011;5284;50.446;7.904;2023-04-15T13:43:27;9.10;;;5.55;;
10473;SDS011;5284;50.446;7.904;2023-04-15T13:48:31;8.50;;;5.63;;
10473;SDS011;5284;50.446;7.904;2023-04-15T13:53:35;8.50;;;5.10;;
10473;SDS011;5284;50.446;7.904;2023-04-15T13:58:40;10.45;;;5.70;;
10473;SDS011;5284;50.446;7.904;2023-04-15T14:03:42;8.35;;;5.25;;
10473;SDS011;5284;50.446;7.904;2023-04-15T14:08:47;6.95;;;4.85;;
10473;SDS011;5284;50.446;7.904;2023-04-15T14:13:52;8.30;;;5.47;;
10473;SDS011;5284;50.446;7.904;2023-04-15T14:18:55;8.48;;;5.70;;
10473;SDS011;5284;50.446;7.904;2023-04-15T14:23:59;13.00;;;6.20;;
10473;SDS011;5284;50.446;7.904;2023-04-15T14:29:02;10.32;;;6.82;;
10473;SDS011;5284;50.446;7.904;2023-04-15T14:34:05;11.75;;;7.40;;
10473;SDS011;5284;50.446;7.904;2023-04-15T14:39:10;11.98;;;7.57;;
10473;SDS011;5284;50.446;7.904;2023-04-15T14:44:16;11.70;;;7.77;;
10473;SDS011;5284;50.446;7.904;2023-04-15T14:49:18;12.57;;;7.47;;
10473;SDS011;5284;50.446;7.904;2023-04-15T14:54:23;11.88;;;7.55;;
10473;SDS011;5284;50.446;7.904;2023-04-15T14:59:26;14.30;;;7.85;;
10473;SDS011;5284;50.446;7.904;2023-04-15T15:04:29;11.27;;;7.18;;
10473;SDS011;5284;50.446;7.904;2023-04-15T15:09:35;10.35;;;6.38;;
10473;SDS011;5284;50.446;7.904;2023-04-15T15:14:38;8.50;;;5.80;;
10473;SDS011;5284;50.446;7.904;2023-04-15T15:19:40;11.45;;;6.85;;
10473;SDS011;5284;50.446;7.904;2023-04-15T15:24:45;14.60;;;6.22;;
10473;SDS011;5284;50.446;7.904;2023-04-15T15:29:50;12.32;;;6.68;;
10473;SDS011;5284;50.446;7.904;2023-04-15T15:34:53;12.68;;;6.07;;
10473;SDS011;5284;50.446;7.904;2023-04-15T15:39:57;13.48;;;6.88;;
10473;SDS011;5284;50.446;7.904;2023-04-15T15:45:02;12.33;;;7.47;;
10473;SDS011;5284;50.446;7.904;2023-04-15T15:50:06;13.15;;;6.63;;
10473;SDS011;5284;50.446;7.904;2023-04-15T15:55:12;9.85;;;6.30;;
10473;SDS011;5284;50.446;7.904;2023-04-15T16:00:15;9.30;;;6.57;;
10473;SDS011;5284;50.446;7.904;2023-04-15T16:05:18;14.63;;;8.27;;
10473;SDS011;5284;50.446;7.904;2023-04-15T16:10:22;10.13;;;6.53;;
10473;SDS011;5284;50.446;7.904;2023-04-15T16:15:25;10.23;;;6.63;;
10473;SDS011;5284;50.446;7.904;2023-04-15T16:20:28;10.45;;;7.13;;
10473;SDS011;5284;50.446;7.904;2023-04-15T16:25:33;13.45;;;7.72;;
10473;SDS011;5284;50.446;7.904;2023-04-15T16:30:36;11.05;;;7.32;;
10473;SDS011;5284;50.446;7.904;2023-04-15T16:35:40;12.52;;;7.00;;
10473;SDS011;5284;50.446;7.904;2023-04-15T16:40:44;12.15;;;7.18;;
10473;SDS011;5284;50.446;7.904;2023-04-15T16:45:47;10.90;;;7.65;;
10473;SDS011;5284;50.446;7.904;2023-04-15T16:50:52;13.80;;;7.57;;
10473;SDS011;5284;50.446;7.904;2023-04-15T16:55:56;14.13;;;8.45;;
10473;SDS011;5284;50.446;7.904;2023-04-15T17:00:59;24.60;;;11.70;;
10473;SDS011;5284;50.446;7.904;2023-04-15T17:06:01;9.90;;;6.85;;
10473;SDS011;5284;50.446;7.904;2023-04-15T17:11:06;12.35;;;7.72;;
10473;SDS011;5284;50.446;7.904;2023-04-15T17:16:09;17.02;;;9.10;;
10473;SDS011;5284;50.446;7.904;2023-04-15T17:21:11;17.90;;;8.82;;
10473;SDS011;5284;50.446;7.904;2023-04-15T17:26:17;12.55;;;8.43;;
10473;SDS011;5284;50.446;7.904;2023-04-15T17:31:20;17.92;;;9.73;;
10473;SDS011;5284;50.446;7.904;2023-04-15T17:36:23;12.80;;;9.27;;
10473;SDS011;5284;50.446;7.904;2023-04-15T17:41:28;15.20;;;9.45;;
10473;SDS011;5284;50.446;7.904;2023-04-15T17:46:31;16.38;;;10.50;;
10473;SDS011;5284;50.446;7.904;2023-04-15T17:51:34;11.70;;;7.70;;
10473;SDS011;5284;50.446;7.904;2023-04-15T17:56:42;12.80;;;9.17;;
10473;SDS011;5284;50.446;7.904;2023-04-15T18:01:45;11.98;;;7.43;;
10473;SDS011;5284;50.446;7.904;2023-04-15T18:06:48;11.27;;;7.07;;
10473;SDS011;5284;50.446;7.904;2023-04-15T18:11:54;10.07;;;6.45;;
10473;SDS011;5284;50.446;7.904;2023-04-15T18:16:57;11.80;;;7.97;;
10473;SDS011;5284;50.446;7.904;2023-04-15T18:22:00;13.40;;;7.63;;
10473;SDS011;5284;50.446;7.904;2023-04-15T18:27:05;10.23;;;6.25;;
10473;SDS011;5284;50.446;7.904;2023-04-15T18:32:08;33.53;;;15.98;;
10473;SDS011;5284;50.446;7.904;2023-04-15T18:37:12;12.57;;;7.10;;
10473;SDS011;5284;50.446;7.904;2023-04-15T18:42:16;10.93;;;7.35;;
10473;SDS011;5284;50.446;7.904;2023-04-15T18:47:19;9.73;;;5.88;;
10473;SDS011;5284;50.446;7.904;2023-04-15T18:52:22;11.30;;;6.97;;
10473;SDS011;5284;50.446;7.904;2023-04-15T18:57:26;9.45;;;6.10;;
10473;SDS011;5284;50.446;7.904;2023-04-15T19:02:35;9.77;;;5.93;;
10473;SDS011;5284;50.446;7.904;2023-04-15T19:07:38;11.07;;;5.90;;
10473;SDS011;5284;50.446;7.904;2023-04-15T19:12:42;8.85;;;5.35;;
10473;SDS011;5284;50.446;7.904;2023-04-15T19:17:46;11.60;;;6.47;;
10473;SDS011;5284;50.446;7.904;2023-04-15T19:22:49;9.02;;;5.10;;
10473;SDS011;5284;50.446;7.904;2023-04-15T19:27:53;7.53;;;5.38;;
10473;SDS011;5284;50.446;7.904;2023-04-15T19:32:58;10.63;;;6.20;;
10473;SDS011;5284;50.446;7.904;2023-04-15T19:38:01;9.00;;;5.60;;
10473;SDS011;5284;50.446;7.904;2023-04-15T19:43:06;8.60;;;4.70;;
10473;SDS011;5284;50.446;7.904;2023-04-15T19:48:08;9.40;;;5.50;;
10473;SDS011;5284;50.446;7.904;2023-04-15T19:53:11;8.80;;;5.28;;
10473;SDS011;5284;50.446;7.904;2023-04-15T19:58:15;8.60;;;5.57;;
10473;SDS011;5284;50.446;7.904;2023-04-15T20:03:18;11.25;;;6.05;;
10473;SDS011;5284;50.446;7.904;2023-04-15T20:08:22;8.38;;;6.22;;
10473;SDS011;5284;50.446;7.904;2023-04-15T20:13:26;10.57;;;5.43;;
10473;SDS011;5284;50.446;7.904;2023-04-15T20:18:29;7.90;;;5.97;;
10473;SDS011;5284;50.446;7.904;2023-04-15T20:23:32;12.80;;;6.80;;
10473;SDS011;5284;50.446;7.904;2023-04-15T20:28:37;9.80;;;5.95;;
10473;SDS011;5284;50.446;7.904;2023-04-15T20:33:40;9.25;;;5.93;;
10473;SDS011;5284;50.446;7.904;2023-04-15T20:38:43;11.00;;;7.57;;
10473;SDS011;5284;50.446;7.904;2023-04-15T20:43:47;9.57;;;6.00;;
10473;SDS011;5284;50.446;7.904;2023-04-15T20:48:50;12.23;;;6.82;;
10473;SDS011;5284;50.446;7.904;2023-04-15T20:53:53;10.05;;;6.22;;
10473;SDS011;5284;50.446;7.904;2023-04-15T20:58:57;12.93;;;6.53;;
10473;SDS011;5284;50.446;7.904;2023-04-15T21:04:01;11.02;;;7.00;;
10473;SDS011;5284;50.446;7.904;2023-04-15T21:09:04;22.17;;;10.27;;
10473;SDS011;5284;50.446;7.904;2023-04-15T21:14:09;37.65;;;14.75;;
10473;SDS011;5284;50.446;7.904;2023-04-15T21:19:13;13.68;;;6.80;;
10473;SDS011;5284;50.446;7.904;2023-04-15T21:24:16;11.02;;;6.35;;
10473;SDS011;5284;50.446;7.904;2023-04-15T21:29:20;16.27;;;9.02;;
10473;SDS011;5284;50.446;7.904;2023-04-15T21:34:23;18.33;;;10.05;;
10473;SDS011;5284;50.446;7.904;2023-04-15T21:39:26;24.90;;;11.05;;
10473;SDS011;5284;50.446;7.904;2023-04-15T21:44:31;21.75;;;9.27;;
10473;SDS011;5284;50.446;7.904;2023-04-15T21:49:34;21.92;;;8.98;;
10473;SDS011;5284;50.446;7.904;2023-04-15T21:54:37;12.18;;;7.18;;
10473;SDS011;5284;50.446;7.904;2023-04-15T21:59:42;17.73;;;9.73;;
10473;SDS011;5284;50.446;7.904;2023-04-15T22:04:45;15.95;;;8.65;;
10473;SDS011;5284;50.446;7.904;2023-04-15T22:09:48;16.83;;;9.27;;
10473;SDS011;5284;50.446;7.904;2023-04-15T22:14:53;19.55;;;10.07;;
10473;SDS011;5284;50.446;7.904;2023-04-15T22:19:57;17.55;;;9.45;;
10473;SDS011;5284;50.446;7.904;2023-04-15T22:25:00;11.82;;;8.18;;
10473;SDS011;5284;50.446;7.904;2023-04-15T22:30:04;26.30;;;11.85;;
10473;SDS011;5284;50.446;7.904;2023-04-15T22:35:08;10.70;;;6.80;;
10473;SDS011;5284;50.446;7.904;2023-04-15T22:40:11;15.70;;;7.47;;
10473;SDS011;5284;50.446;7.904;2023-04-15T22:45:16;16.38;;;7.55;;
10473;SDS011;5284;50.446;7.904;2023-04-15T22:50:19;17.40;;;9.80;;
10473;SDS011;5284;50.446;7.904;2023-04-15T22:55:22;20.92;;;10.85;;
10473;SDS011;5284;50.446;7.904;2023-04-15T23:00:26;18.60;;;9.45;;
10473;SDS011;5284;50.446;7.904;2023-04-15T23:05:29;17.90;;;9.82;;
10473;SDS011;5284;50.446;7.904;2023-04-15T23:10:32;17.25;;;10.52;;
10473;SDS011;5284;50.446;7.904;2023-04-15T23:15:37;21.33;;;10.05;;
10473;SDS011;5284;50.446;7.904;2023-04-15T23:20:40;18.92;;;10.13;;
10473;SDS011;5284;50.446;7.904;2023-04-15T23:25:42;20.25;;;10.52;;
10473;SDS011;5284;50.446;7.904;2023-04-15T23:30:47;19.10;;;11.77;;
10473;SDS011;5284;50.446;7.904;2023-04-15T23:35:49;17.40;;;10.65;;
10473;SDS011;5284;50.446;7.904;2023-04-15T23:40:52;23.58;;;12.93;;
10473;SDS011;5284;50.446;7.904;2023-04-15T23:45:56;25.63;;;13.27;;
10473;SDS011;5284;50.446;7.904;2023-04-15T23:50:59;21.52;;;13.18;;
10473;SDS011;5284;50.446;7.904;2023-04-15T23:56:03;25.50;;;13.25;;
